Alyeska Resort
Hourly Weather - Base Weather Site
ALY_BASE_HR 8/28/2016
CLICK TO VIEW GRAPH!!

        DATE  TIME   Air  BATT   H2o   H2o   Rel
                    Temp  Volt  Inch Since  Hum%
                      F   AVG   1HR  0600   AVG

   8/28/2016 10:00    51 13.73  0.00  0.00    96
   8/28/2016 09:00    50 13.74  0.00  0.00    96
   8/28/2016 08:00    49 13.74  0.00  0.00    96
   8/28/2016 07:00    49 13.73  0.00  0.00    96
   8/28/2016 06:00    50 13.72  0.01  0.01    96
   8/28/2016 05:00    51 13.70  0.00  0.00    95
   8/28/2016 04:00    52 13.69  0.00  0.00    95
   8/28/2016 03:00    52 13.67  0.00  0.00    94
   8/28/2016 02:00    53 13.65  0.00  0.00    94
   8/28/2016 01:00    54 13.62  0.00  0.00    93
   8/27/2016 24:00    56 13.58  0.00  0.00    92
   8/27/2016 23:00    57 13.54  0.00  0.00    91
   8/27/2016 22:00    59 13.48  0.00  0.00    89
   8/27/2016 21:00    62 13.40  0.00  0.00    85
   8/27/2016 20:00    68 13.32  0.00  0.00    66
   8/27/2016 19:00    72 13.29  0.00  0.00    57
   8/27/2016 18:00    71 13.31  0.00  0.00    57
   8/27/2016 17:00    69 13.34  0.00  0.00    63
   8/27/2016 16:00    68 13.35  0.00  0.00    68
   8/27/2016 15:00    67 13.36  0.00  0.00    69
   8/27/2016 14:00    67 13.40  0.00  0.00    68
   8/27/2016 13:00    63 13.48  0.00  0.00    76
   8/27/2016 12:00    59 13.56  0.00  0.00    87
   8/27/2016 11:00    57 13.59  0.00  0.00    93


CLICK TO VIEW GRAPH!!